createdAt,value
2023-04-05T00:00:50.150Z,9.70
2023-04-05T00:03:18.826Z,9.70
2023-04-05T00:05:50.212Z,9.70
2023-04-05T00:08:24.516Z,9.70
2023-04-05T00:10:52.139Z,9.80
2023-04-05T00:13:19.597Z,9.70
2023-04-05T00:15:48.885Z,9.80
2023-04-05T00:18:22.508Z,9.70
2023-04-05T00:20:54.191Z,9.70
2023-04-05T00:23:23.025Z,9.70
2023-04-05T00:25:50.601Z,9.60
2023-04-05T00:28:18.131Z,9.70
2023-04-05T00:30:48.218Z,9.60
2023-04-05T00:33:16.792Z,9.50
2023-04-05T00:35:44.023Z,9.60
2023-04-05T00:38:11.564Z,9.60
2023-04-05T00:40:39.472Z,9.60
2023-04-05T00:43:07.141Z,9.60
2023-04-05T00:45:37.506Z,9.60
2023-04-05T00:48:06.580Z,9.60
2023-04-05T00:50:35.298Z,9.60
2023-04-05T00:53:03.498Z,9.50
2023-04-05T00:55:34.280Z,9.50
2023-04-05T00:58:02.371Z,9.50
2023-04-05T01:00:34.204Z,9.60
2023-04-05T01:03:05.170Z,9.60
2023-04-05T01:05:49.293Z,9.60
2023-04-05T01:08:29.093Z,9.50
2023-04-05T01:11:01.765Z,9.50
2023-04-05T01:13:30.150Z,9.40
2023-04-05T01:15:57.950Z,9.50
2023-04-05T01:18:26.643Z,9.50
2023-04-05T01:21:10.789Z,9.50
2023-04-05T01:24:10.097Z,9.60
2023-04-05T01:26:55.298Z,9.50
2023-04-05T01:30:06.904Z,9.60
2023-04-05T01:32:44.498Z,9.50
2023-04-05T01:35:22.788Z,9.60
2023-04-05T01:37:57.637Z,9.60
2023-04-05T01:40:25.858Z,9.50
2023-04-05T01:42:53.493Z,9.50
2023-04-05T01:45:20.916Z,9.60
2023-04-05T01:47:48.440Z,9.50
2023-04-05T01:50:18.569Z,9.60
2023-04-05T01:52:45.854Z,9.60
2023-04-05T01:55:13.688Z,9.40
2023-04-05T01:57:40.956Z,9.50
2023-04-05T02:00:08.877Z,9.50
2023-04-05T02:02:40.595Z,9.50
2023-04-05T02:05:08.481Z,9.50
2023-04-05T02:07:37.114Z,9.40
2023-04-05T02:10:06.088Z,9.50
2023-04-05T02:12:33.701Z,9.50
2023-04-05T02:15:01.101Z,9.40
2023-04-05T02:17:34.594Z,9.40
2023-04-05T02:20:07.177Z,9.40
2023-04-05T02:22:35.338Z,9.40
2023-04-05T02:25:03.830Z,9.40
2023-04-05T02:27:31.136Z,9.30
2023-04-05T02:29:58.538Z,9.40
2023-04-05T02:32:26.353Z,9.40
2023-04-05T02:34:53.900Z,9.40
2023-04-05T02:37:25.962Z,9.20
2023-04-05T02:39:54.553Z,9.30
2023-04-05T02:42:22.242Z,9.30
2023-04-05T02:44:52.892Z,9.30
2023-04-05T02:47:21.974Z,9.40
2023-04-05T02:49:57.426Z,9.40
2023-04-05T02:52:27.064Z,9.30
2023-04-05T02:54:55.050Z,9.30
2023-04-05T02:57:27.135Z,9.30
2023-04-05T03:00:05.987Z,9.40
2023-04-05T03:02:34.786Z,9.20
2023-04-05T03:05:03.941Z,9.40
2023-04-05T03:07:33.934Z,9.30
2023-04-05T03:10:05.259Z,9.50
2023-04-05T03:12:33.943Z,9.40
2023-04-05T03:15:01.599Z,9.40
2023-04-05T03:17:37.616Z,9.30
2023-04-05T03:20:09.569Z,9.40
2023-04-05T03:22:37.893Z,9.40
2023-04-05T03:25:07.821Z,9.40
2023-04-05T03:27:41.834Z,9.20
2023-04-05T03:30:13.180Z,9.30
2023-04-05T03:32:48.150Z,9.30
2023-04-05T03:35:34.396Z,9.30
2023-04-05T03:38:02.133Z,9.20
2023-04-05T03:40:29.793Z,9.30
2023-04-05T03:42:57.744Z,9.20
2023-04-05T03:45:25.542Z,9.30
2023-04-05T03:47:53.695Z,9.30
2023-04-05T03:50:21.804Z,9.30
2023-04-05T03:52:49.520Z,9.30
2023-04-05T03:55:19.495Z,9.30
2023-04-05T03:57:49.021Z,9.20
2023-04-05T04:00:26.909Z,9.20
2023-04-05T04:03:12.012Z,9.30
2023-04-05T04:05:43.200Z,9.30
2023-04-05T04:08:11.271Z,9.30
2023-04-05T04:10:39.176Z,9.30
2023-04-05T04:13:16.118Z,9.30
2023-04-05T04:15:45.429Z,9.30
2023-04-05T04:18:31.279Z,9.30
2023-04-05T04:21:24.966Z,9.30
2023-04-05T04:24:18.854Z,9.30
2023-04-05T04:27:03.191Z,9.20
2023-04-05T04:29:47.639Z,9.40
2023-04-05T04:33:09.317Z,9.30
2023-04-05T04:36:14.273Z,9.40
2023-04-05T04:39:06.626Z,9.40
2023-04-05T04:42:06.138Z,9.50
2023-04-05T04:44:58.251Z,9.40
2023-04-05T04:47:45.754Z,9.40
2023-04-05T04:50:20.093Z,9.40
2023-04-05T04:52:48.533Z,9.40
2023-04-05T04:55:16.083Z,9.30
2023-04-05T04:57:46.929Z,9.30
2023-04-05T05:00:16.191Z,9.20
2023-04-05T05:02:44.411Z,9.30
2023-04-05T05:05:14.843Z,9.30
2023-04-05T05:07:42.765Z,9.30
2023-04-05T05:10:11.637Z,9.20
2023-04-05T05:12:39.451Z,9.20
2023-04-05T05:15:07.878Z,9.30
2023-04-05T05:17:35.874Z,9.30
2023-04-05T05:20:06.128Z,9.30
2023-04-05T05:22:33.907Z,9.30
2023-04-05T05:25:01.117Z,9.30
2023-04-05T05:27:28.668Z,9.40
2023-04-05T05:29:56.967Z,9.20
2023-04-05T05:32:24.174Z,9.30
2023-04-05T05:34:51.614Z,9.30
2023-04-05T05:37:19.045Z,9.20
2023-04-05T05:39:46.760Z,9.20
2023-04-05T05:42:14.009Z,9.20
2023-04-05T05:44:41.466Z,9.30
2023-04-05T05:47:08.844Z,9.20
2023-04-05T05:49:36.214Z,9.10
2023-04-05T05:52:04.242Z,9.20
2023-04-05T05:54:31.804Z,9.20
2023-04-05T05:56:59.295Z,9.20
2023-04-05T05:59:27.175Z,9.20
2023-04-05T06:01:55.660Z,9.10
2023-04-05T06:04:23.105Z,9.20
2023-04-05T06:06:50.777Z,9.20
2023-04-05T06:09:18.090Z,9.40
2023-04-05T06:11:55.918Z,9.40
2023-04-05T06:14:24.889Z,9.40
2023-04-05T06:16:52.544Z,9.40
2023-04-05T06:19:19.872Z,9.40
2023-04-05T06:21:47.505Z,9.50
2023-04-05T06:24:14.747Z,9.50
2023-04-05T06:26:42.304Z,9.40
2023-04-05T06:29:10.000Z,9.50
2023-04-05T06:31:38.281Z,9.50
2023-04-05T06:34:06.075Z,9.50
2023-04-05T06:36:34.526Z,9.50
2023-04-05T06:39:02.098Z,9.70
2023-04-05T06:41:29.748Z,9.80
2023-04-05T06:43:57.246Z,9.70
2023-04-05T06:46:24.791Z,9.90
2023-04-05T06:48:52.633Z,9.90
2023-04-05T06:51:21.093Z,10.00
2023-04-05T06:53:48.754Z,10.10
2023-04-05T06:56:16.155Z,10.10
2023-04-05T06:58:44.375Z,10.10
2023-04-05T07:01:12.299Z,10.00
2023-04-05T07:03:39.586Z,9.90
2023-04-05T07:06:07.294Z,10.00
2023-04-05T07:08:34.740Z,9.90
2023-04-05T07:11:02.180Z,10.00
2023-04-05T07:13:30.041Z,10.10
2023-04-05T07:16:01.821Z,10.10
2023-04-05T07:18:30.415Z,10.10
2023-04-05T07:21:00.404Z,10.10
2023-04-05T07:23:29.614Z,10.00
2023-04-05T07:26:08.221Z,9.90
2023-04-05T07:28:36.661Z,9.80
2023-04-05T07:31:09.908Z,9.90
2023-04-05T07:33:37.299Z,10.00
2023-04-05T07:36:04.996Z,10.10
2023-04-05T07:38:32.370Z,10.20
2023-04-05T07:40:59.660Z,10.30
2023-04-05T07:43:27.265Z,10.30
2023-04-05T07:46:02.994Z,10.40
2023-04-05T07:48:31.312Z,10.40
2023-04-05T07:51:07.423Z,10.40
2023-04-05T07:53:36.069Z,10.50
2023-04-05T07:56:08.476Z,10.60
2023-04-05T07:58:36.216Z,10.60
2023-04-05T08:01:05.029Z,10.50
2023-04-05T08:03:35.340Z,10.70
2023-04-05T08:06:19.445Z,10.80
2023-04-05T08:08:47.537Z,10.80
2023-04-05T08:11:15.019Z,10.90
2023-04-05T08:13:44.183Z,11.00
2023-04-05T08:16:14.541Z,11.00
2023-04-05T08:18:42.129Z,11.10
2023-04-05T08:21:09.387Z,11.10
2023-04-05T08:23:36.849Z,11.10
2023-04-05T08:26:04.287Z,11.30
2023-04-05T08:28:31.876Z,11.20
2023-04-05T08:30:59.157Z,11.30
2023-04-05T08:33:28.587Z,11.30
2023-04-05T08:35:56.353Z,11.30
2023-04-05T08:38:24.170Z,11.40
2023-04-05T08:40:51.523Z,11.30
2023-04-05T08:43:57.734Z,11.70
2023-04-05T08:46:26.514Z,12.00
2023-04-05T08:48:54.340Z,12.30
2023-04-05T08:51:22.898Z,12.70
2023-04-05T08:53:50.902Z,12.70
2023-04-05T08:56:32.281Z,12.40
2023-04-05T08:59:03.944Z,12.50
2023-04-05T09:01:32.961Z,12.30
2023-04-05T09:04:02.837Z,12.30
2023-04-05T09:06:30.643Z,12.40
2023-04-05T09:08:58.762Z,12.60
2023-04-05T09:11:26.595Z,12.70
2023-04-05T09:13:53.897Z,12.60
2023-04-05T09:16:21.605Z,12.60
2023-04-05T09:18:49.585Z,12.80
2023-04-05T09:21:17.867Z,12.80
2023-04-05T09:23:56.094Z,12.80
2023-04-05T09:26:26.410Z,12.80
2023-04-05T09:28:59.955Z,13.00
2023-04-05T09:31:35.037Z,13.20
2023-04-05T09:34:06.952Z,13.20
2023-04-05T09:36:35.349Z,13.10
2023-04-05T09:39:08.281Z,13.30
2023-04-05T09:41:36.797Z,13.60
2023-04-05T09:44:07.750Z,13.60
2023-04-05T09:46:38.453Z,13.70
2023-04-05T09:49:08.506Z,13.40
2023-04-05T09:51:39.644Z,13.60
2023-04-05T09:54:11.549Z,13.40
2023-04-05T09:56:40.866Z,13.50
2023-04-05T09:59:12.866Z,13.60
2023-04-05T10:01:44.856Z,13.70
2023-04-05T10:04:12.487Z,13.60
2023-04-05T10:06:42.204Z,13.70
2023-04-05T10:09:11.470Z,13.60
2023-04-05T10:11:39.488Z,13.60
2023-04-05T10:14:09.373Z,13.80
2023-04-05T10:16:49.053Z,14.00
2023-04-05T10:19:37.644Z,14.30
2023-04-05T10:22:14.916Z,14.20
2023-04-05T10:24:52.326Z,14.00
2023-04-05T10:27:33.195Z,14.10
2023-04-05T10:30:10.010Z,13.90
2023-04-05T10:32:53.459Z,13.90
2023-04-05T10:35:29.655Z,14.00
2023-04-05T10:38:27.015Z,14.10
2023-04-05T10:40:58.986Z,14.30
2023-04-05T10:43:28.142Z,14.60
2023-04-05T10:45:57.935Z,14.70
2023-04-05T10:48:43.447Z,14.40
2023-04-05T10:51:13.655Z,14.20
2023-04-05T10:53:41.710Z,14.20
2023-04-05T10:56:09.733Z,14.40
2023-04-05T10:58:40.421Z,14.10
2023-04-05T11:03:51.851Z,14.20
2023-04-05T11:06:23.718Z,14.10
2023-04-05T11:08:57.603Z,14.20
2023-04-05T11:11:28.136Z,14.40
2023-04-05T11:13:59.021Z,14.40
2023-04-05T11:16:41.401Z,14.50
2023-04-05T11:19:09.724Z,14.40
2023-04-05T11:21:37.346Z,14.40
2023-04-05T11:24:15.442Z,14.40
2023-04-05T11:26:48.990Z,14.60
2023-04-05T11:29:16.767Z,14.60
2023-04-05T11:32:06.921Z,14.60
2023-04-05T11:34:36.961Z,14.50
2023-04-05T11:37:04.311Z,14.50
2023-04-05T11:39:31.938Z,14.50
2023-04-05T11:41:59.215Z,14.50
2023-04-05T11:44:26.864Z,14.60
2023-04-05T11:46:55.138Z,14.40
2023-04-05T11:49:27.700Z,14.20
2023-04-05T11:51:55.850Z,14.00
2023-04-05T11:54:31.869Z,14.00
2023-04-05T11:56:59.615Z,14.10
2023-04-05T11:59:36.791Z,14.00
2023-04-05T12:02:08.233Z,14.10
2023-04-05T12:04:36.649Z,14.00
2023-04-05T12:07:17.689Z,14.10
2023-04-05T12:10:14.051Z,14.30
2023-04-05T12:12:43.818Z,14.30
